createdAt,value
2022-11-05T00:01:31.316Z,3.58
2022-11-05T00:04:19.732Z,3.13
2022-11-05T00:07:08.106Z,3.25
2022-11-05T00:09:39.004Z,3.63
2022-11-05T00:12:33.183Z,3.47
2022-11-05T00:15:21.565Z,2.92
2022-11-05T00:17:51.744Z,3.53
2022-11-05T00:20:21.982Z,3.38
2022-11-05T00:23:10.351Z,3.70
2022-11-05T00:25:40.714Z,3.42
2022-11-05T00:28:10.959Z,3.33
2022-11-05T00:30:41.184Z,3.42
2022-11-05T00:33:12.103Z,3.47
2022-11-05T00:35:42.704Z,2.95
2022-11-05T00:38:13.273Z,3.47
2022-11-05T00:40:43.494Z,3.75
2022-11-05T00:43:31.555Z,3.65
2022-11-05T00:46:01.924Z,3.58
2022-11-05T00:48:50.245Z,3.50
2022-11-05T00:51:20.692Z,3.88
2022-11-05T00:53:50.889Z,3.45
2022-11-05T00:56:21.142Z,3.80
2022-11-05T00:58:51.305Z,3.00
2022-11-05T01:01:21.620Z,3.22
2022-11-05T01:03:52.124Z,3.28
2022-11-05T01:06:22.596Z,3.30
2022-11-05T01:08:52.838Z,3.78
2022-11-05T01:11:35.460Z,3.47
2022-11-05T01:14:07.089Z,3.47
2022-11-05T01:16:39.183Z,3.10
2022-11-05T01:19:11.405Z,3.50
2022-11-05T01:21:41.849Z,3.20
2022-11-05T01:24:13.584Z,3.33
2022-11-05T01:26:43.717Z,3.15
2022-11-05T01:29:14.147Z,3.13
2022-11-05T01:31:44.427Z,3.65
2022-11-05T01:34:14.764Z,3.58
2022-11-05T01:36:44.993Z,3.30
2022-11-05T01:39:15.270Z,3.35
2022-11-05T01:41:45.516Z,3.20
2022-11-05T01:44:52.091Z,3.42
2022-11-05T01:47:28.789Z,3.22
2022-11-05T01:50:02.935Z,3.30
2022-11-05T01:52:35.579Z,3.97
2022-11-05T01:55:06.801Z,3.60
2022-11-05T01:57:37.272Z,3.20
2022-11-05T02:00:08.391Z,3.40
2022-11-05T02:02:39.075Z,3.58
2022-11-05T02:05:10.438Z,3.78
2022-11-05T02:07:41.000Z,3.40
2022-11-05T02:10:15.608Z,3.53
2022-11-05T02:12:48.539Z,3.70
2022-11-05T02:15:41.474Z,3.90
2022-11-05T02:18:43.116Z,3.38
2022-11-05T02:21:24.591Z,3.80
2022-11-05T02:23:54.851Z,3.88
2022-11-05T02:27:12.414Z,3.40
2022-11-05T02:29:57.288Z,3.70
2022-11-05T02:33:04.439Z,3.70
2022-11-05T02:35:55.114Z,3.00
2022-11-05T02:39:09.291Z,3.35
2022-11-05T02:42:05.296Z,3.80
2022-11-05T02:45:05.115Z,3.75
2022-11-05T02:47:44.471Z,3.83
2022-11-05T02:50:23.619Z,3.88
2022-11-05T02:52:56.913Z,3.65
2022-11-05T02:55:34.814Z,3.88
2022-11-05T02:58:07.132Z,4.18
2022-11-05T03:00:37.590Z,4.47
2022-11-05T03:03:12.539Z,3.85
2022-11-05T03:06:19.022Z,4.07
2022-11-05T03:09:14.194Z,3.80
2022-11-05T03:11:53.314Z,4.22
2022-11-05T03:14:34.897Z,3.75
2022-11-05T03:17:39.767Z,3.47
2022-11-05T03:20:25.441Z,4.28
2022-11-05T03:23:25.165Z,3.92
2022-11-05T03:26:07.788Z,3.95
2022-11-05T03:28:42.001Z,3.80
2022-11-05T03:31:15.825Z,3.72
2022-11-05T03:33:48.712Z,4.32
2022-11-05T03:36:28.980Z,3.92
2022-11-05T03:39:02.935Z,4.30
2022-11-05T03:41:35.965Z,3.88
2022-11-05T03:44:09.534Z,4.35
2022-11-05T03:46:49.668Z,4.07
2022-11-05T03:49:28.084Z,3.80
2022-11-05T03:52:30.418Z,3.80
2022-11-05T03:55:00.766Z,4.45
2022-11-05T03:57:35.170Z,3.70
2022-11-05T04:00:10.242Z,4.20
2022-11-05T04:02:40.846Z,3.90
2022-11-05T04:05:11.412Z,4.50
2022-11-05T04:07:59.994Z,4.22
2022-11-05T04:10:48.212Z,4.10
2022-11-05T04:13:27.216Z,4.43
2022-11-05T04:16:16.408Z,3.92
2022-11-05T04:18:46.686Z,3.72
2022-11-05T04:21:34.668Z,4.30
2022-11-05T04:24:10.657Z,4.32
2022-11-05T04:26:45.865Z,4.22
2022-11-05T04:29:34.356Z,4.40
2022-11-05T04:32:04.525Z,3.80
2022-11-05T04:34:34.790Z,3.92
2022-11-05T04:37:04.956Z,3.83
2022-11-05T04:39:35.265Z,4.22
2022-11-05T04:42:05.538Z,4.32
2022-11-05T04:44:35.831Z,3.97
2022-11-05T04:47:06.105Z,4.35
2022-11-05T04:49:36.304Z,4.43
2022-11-05T04:52:06.586Z,4.20
2022-11-05T04:54:36.818Z,4.03
2022-11-05T04:57:07.073Z,3.97
2022-11-05T04:59:37.484Z,3.80
2022-11-05T05:02:07.665Z,4.43
2022-11-05T05:04:38.174Z,4.10
2022-11-05T05:07:08.391Z,3.70
2022-11-05T05:09:38.703Z,3.97
2022-11-05T05:12:09.710Z,3.85
2022-11-05T05:14:40.210Z,3.72
2022-11-05T05:17:10.468Z,4.43
2022-11-05T05:19:58.891Z,3.88
2022-11-05T05:22:29.501Z,3.88
2022-11-05T05:25:02.729Z,4.00
2022-11-05T05:27:33.090Z,3.80
2022-11-05T05:30:03.358Z,4.13
2022-11-05T05:32:33.609Z,4.22
2022-11-05T05:35:03.757Z,3.75
2022-11-05T05:37:33.998Z,4.07
2022-11-05T05:40:04.396Z,4.15
2022-11-05T05:42:38.750Z,4.20
2022-11-05T05:45:12.447Z,4.18
2022-11-05T05:47:42.798Z,3.45
2022-11-05T05:50:13.080Z,4.10
2022-11-05T05:52:43.372Z,3.83
2022-11-05T05:55:14.390Z,3.92
2022-11-05T05:57:44.631Z,3.83
2022-11-05T06:00:15.536Z,4.05
2022-11-05T06:02:45.883Z,4.15
2022-11-05T06:05:16.282Z,3.90
2022-11-05T06:07:46.568Z,4.25
2022-11-05T06:10:16.821Z,4.07
2022-11-05T06:12:47.070Z,4.03
2022-11-05T06:15:17.351Z,3.90
2022-11-05T06:17:48.183Z,4.07
2022-11-05T06:20:18.448Z,3.75
2022-11-05T06:22:58.020Z,4.15
2022-11-05T06:25:28.532Z,3.70
2022-11-05T06:27:58.766Z,4.03
2022-11-05T06:30:28.991Z,4.03
2022-11-05T06:33:03.650Z,3.97
2022-11-05T06:35:34.408Z,3.70
2022-11-05T06:38:04.979Z,3.90
2022-11-05T06:40:35.110Z,4.22
2022-11-05T06:43:05.304Z,4.18
2022-11-05T06:45:35.544Z,4.57
2022-11-05T06:48:05.916Z,4.03
2022-11-05T06:50:36.181Z,3.97
2022-11-05T06:53:07.302Z,4.00
2022-11-05T06:55:37.470Z,4.15
2022-11-05T06:58:07.824Z,4.47
2022-11-05T07:00:38.075Z,4.97
2022-11-05T07:03:13.992Z,4.18
2022-11-05T07:05:50.171Z,3.65
2022-11-05T07:08:20.716Z,5.00
2022-11-05T07:10:51.500Z,4.28
2022-11-05T07:13:21.862Z,4.47
2022-11-05T07:15:52.175Z,4.88
2022-11-05T07:18:22.449Z,4.60
2022-11-05T07:20:52.735Z,4.85
2022-11-05T07:23:23.018Z,5.15
2022-11-05T07:25:53.515Z,5.00
2022-11-05T07:28:23.690Z,5.25
2022-11-05T07:30:53.965Z,5.30
2022-11-05T07:33:24.195Z,5.68
2022-11-05T07:35:54.542Z,5.03
2022-11-05T07:38:24.970Z,5.25
2022-11-05T07:40:55.253Z,4.93
2022-11-05T07:43:25.458Z,5.90
2022-11-05T07:45:55.720Z,5.60
2022-11-05T07:48:25.906Z,5.00
2022-11-05T07:50:56.276Z,5.25
2022-11-05T07:53:26.474Z,5.22
2022-11-05T07:55:58.878Z,4.78
2022-11-05T07:58:29.812Z,5.30
2022-11-05T08:01:00.750Z,5.32
2022-11-05T08:03:31.271Z,5.97
2022-11-05T08:06:02.323Z,4.97
2022-11-05T08:08:33.025Z,4.80
2022-11-05T08:11:11.336Z,5.35
2022-11-05T08:13:41.613Z,4.95
2022-11-05T08:16:12.505Z,5.07
2022-11-05T08:18:42.691Z,4.95
2022-11-05T08:21:13.135Z,5.15
2022-11-05T08:23:44.627Z,4.85
2022-11-05T08:26:14.887Z,4.68
2022-11-05T08:28:45.062Z,4.65
2022-11-05T08:31:17.200Z,4.90
2022-11-05T08:33:47.370Z,4.75
2022-11-05T08:36:17.608Z,4.60
2022-11-05T08:38:48.049Z,4.63
2022-11-05T08:41:18.215Z,5.45
2022-11-05T08:43:48.433Z,5.43
2022-11-05T08:46:18.676Z,4.57
2022-11-05T08:48:48.940Z,4.72
2022-11-05T08:51:19.096Z,5.00
2022-11-05T08:53:49.959Z,5.13
2022-11-05T08:56:20.269Z,4.70
2022-11-05T08:58:50.504Z,4.95
2022-11-05T09:01:20.921Z,5.30
2022-11-05T09:03:53.710Z,4.57
2022-11-05T09:06:24.176Z,5.10
2022-11-05T09:08:54.445Z,4.63
2022-11-05T09:11:37.584Z,4.60
2022-11-05T09:14:14.908Z,4.70
2022-11-05T09:16:45.803Z,4.82
2022-11-05T09:19:16.105Z,5.25
2022-11-05T09:21:46.455Z,4.25
2022-11-05T09:24:16.746Z,4.88
2022-11-05T09:26:47.048Z,4.53
2022-11-05T09:29:17.254Z,4.65
2022-11-05T09:31:47.958Z,4.50
2022-11-05T09:34:18.240Z,4.53
2022-11-05T09:36:48.452Z,4.50
2022-11-05T09:39:18.692Z,5.00
2022-11-05T09:41:50.440Z,4.82
2022-11-05T09:44:28.143Z,4.55
2022-11-05T09:47:03.931Z,4.80
2022-11-05T09:49:50.250Z,4.80
2022-11-05T09:52:32.182Z,4.88
2022-11-05T09:55:04.747Z,5.05
2022-11-05T09:57:52.632Z,5.32
2022-11-05T10:00:23.317Z,4.78
2022-11-05T10:02:58.202Z,4.60
2022-11-05T10:05:29.944Z,4.80
2022-11-05T10:08:13.056Z,4.75
2022-11-05T10:10:46.402Z,5.07
2022-11-05T10:13:38.124Z,4.22
2022-11-05T10:16:43.258Z,4.32
2022-11-05T10:19:39.273Z,4.50
2022-11-05T10:22:18.181Z,4.75
2022-11-05T10:24:51.492Z,4.85
2022-11-05T10:27:39.186Z,4.80
2022-11-05T10:30:10.121Z,4.68
2022-11-05T10:32:44.828Z,4.47
2022-11-05T10:35:20.451Z,4.20
2022-11-05T10:37:51.372Z,4.95
2022-11-05T10:40:36.414Z,4.93
2022-11-05T10:43:09.302Z,4.82
2022-11-05T10:45:54.814Z,4.70
2022-11-05T10:48:45.101Z,4.85
2022-11-05T10:51:16.281Z,5.00
2022-11-05T10:54:04.239Z,4.38
2022-11-05T10:56:42.923Z,4.88
2022-11-05T10:59:31.131Z,4.60
2022-11-05T11:02:27.710Z,4.53
2022-11-05T11:05:00.086Z,4.90
2022-11-05T11:07:30.367Z,4.78
2022-11-05T11:10:01.179Z,4.75
2022-11-05T11:12:41.183Z,4.45
2022-11-05T11:15:34.246Z,4.32
2022-11-05T11:18:26.899Z,4.53
2022-11-05T11:21:06.544Z,5.05
2022-11-05T11:23:42.178Z,4.40
2022-11-05T11:26:15.472Z,4.63
2022-11-05T11:29:07.775Z,4.28
2022-11-05T11:31:41.784Z,5.13
2022-11-05T11:34:18.412Z,4.78
2022-11-05T11:36:51.210Z,4.90
2022-11-05T11:39:28.856Z,4.95
2022-11-05T11:42:28.742Z,4.85
2022-11-05T11:45:02.439Z,5.30
2022-11-05T11:47:32.893Z,5.20
2022-11-05T11:50:05.045Z,4.70
2022-11-05T11:52:39.562Z,4.68
2022-11-05T11:55:15.782Z,4.70
2022-11-05T11:57:54.765Z,4.80
2022-11-05T12:00:28.626Z,4.72
2022-11-05T12:03:27.748Z,4.70
2022-11-05T12:06:46.215Z,4.22
2022-11-05T12:09:44.096Z,4.38
2022-11-05T12:12:19.415Z,4.60
2022-11-05T12:14:55.861Z,4.72
2022-11-05T12:17:47.404Z,4.28
2022-11-05T12:20:20.672Z,5.00
2022-11-05T12:23:02.687Z,4.43
2022-11-05T12:26:10.759Z,4.45
2022-11-05T12:29:16.511Z,4.22
2022-11-05T12:32:04.636Z,4.30
2022-11-05T12:34:59.142Z,4.45
2022-11-05T12:37:50.400Z,4.00
2022-11-05T12:40:45.512Z,4.05
2022-11-05T12:43:36.556Z,4.40
2022-11-05T12:46:16.292Z,3.60
2022-11-05T12:49:10.643Z,4.25
2022-11-05T12:52:14.176Z,3.90
2022-11-05T12:55:13.243Z,4.03
2022-11-05T12:57:47.091Z,3.97
2022-11-05T13:00:25.573Z,4.25
2022-11-05T13:03:22.964Z,4.03
2022-11-05T13:06:05.491Z,4.25
2022-11-05T13:09:04.993Z,3.83
2022-11-05T13:11:50.607Z,4.13
2022-11-05T13:14:51.173Z,4.05
2022-11-05T13:17:31.500Z,4.53
2022-11-05T13:20:24.042Z,4.25
2022-11-05T13:23:25.821Z,3.80
2022-11-05T13:26:21.844Z,4.45
2022-11-05T13:29:10.718Z,4.60
2022-11-05T13:31:55.647Z,4.15
2022-11-05T13:34:25.898Z,4.00
2022-11-05T13:37:19.515Z,4.30
2022-11-05T13:40:01.873Z,4.40
2022-11-05T13:42:55.962Z,3.72
2022-11-05T13:45:35.321Z,4.05
2022-11-05T13:48:31.455Z,3.78
2022-11-05T13:51:38.939Z,3.90
2022-11-05T13:54:47.649Z,3.83
2022-11-05T13:57:43.859Z,3.90
2022-11-05T14:00:28.925Z,3.75
2022-11-05T14:03:17.183Z,3.78
2022-11-05T14:06:04.961Z,4.18
2022-11-05T14:08:45.774Z,3.80
2022-11-05T14:11:26.487Z,3.63
2022-11-05T14:14:01.701Z,3.70
2022-11-05T14:17:03.284Z,3.55
2022-11-05T14:19:37.938Z,4.20
2022-11-05T14:22:35.477Z,3.33
2022-11-05T14:25:26.902Z,4.00
2022-11-05T14:28:00.176Z,4.00
2022-11-05T14:30:56.900Z,3.38
2022-11-05T14:33:30.193Z,3.38
2022-11-05T14:36:32.086Z,3.60
2022-11-05T14:39:27.502Z,3.67
2022-11-05T14:42:28.080Z,3.28
2022-11-05T14:45:21.290Z,3.90
2022-11-05T14:48:07.077Z,3.50
2022-11-05T14:50:43.067Z,3.72
2022-11-05T14:53:38.684Z,3.65
2022-11-05T14:56:19.884Z,3.17
2022-11-05T14:58:50.233Z,3.28
2022-11-05T15:01:35.720Z,3.67
2022-11-05T15:04:26.260Z,3.63
2022-11-05T15:07:08.743Z,3.22
2022-11-05T15:09:56.574Z,3.63
2022-11-05T15:12:49.902Z,3.58
2022-11-05T15:15:31.424Z,3.88
2022-11-05T15:18:28.100Z,3.45
2022-11-05T15:21:02.560Z,3.63
2022-11-05T15:23:47.729Z,3.25
2022-11-05T15:26:26.916Z,3.33
2022-11-05T15:28:58.675Z,3.58
2022-11-05T15:31:43.014Z,3.17
2022-11-05T15:34:22.218Z,3.30
2022-11-05T15:37:22.955Z,3.08
2022-11-05T15:39:55.102Z,3.53
2022-11-05T15:42:27.934Z,3.10
2022-11-05T15:45:02.094Z,3.20
2022-11-05T15:47:36.661Z,3.35
2022-11-05T15:50:18.444Z,3.30
2022-11-05T15:52:55.462Z,3.30
2022-11-05T15:55:29.453Z,3.70
2022-11-05T15:58:06.640Z,3.38
2022-11-05T16:00:38.765Z,3.35
2022-11-05T16:03:34.269Z,3.28
2022-11-05T16:06:05.066Z,3.17
2022-11-05T16:08:35.561Z,3.22
2022-11-05T16:11:05.810Z,3.10
2022-11-05T16:13:43.838Z,3.10
2022-11-05T16:16:17.126Z,3.17
2022-11-05T16:18:48.059Z,3.53
2022-11-05T16:21:24.866Z,3.22
2022-11-05T16:24:02.123Z,3.15
2022-11-05T16:27:01.708Z,3.03
2022-11-05T16:29:35.284Z,2.72
2022-11-05T16:32:31.048Z,3.90
2022-11-05T16:35:09.239Z,3.22
2022-11-05T16:37:50.753Z,3.33
2022-11-05T16:40:25.250Z,3.17
2022-11-05T16:42:57.060Z,3.03
2022-11-05T16:45:28.091Z,3.25
2022-11-05T16:47:58.410Z,2.70
2022-11-05T16:50:32.998Z,2.78
2022-11-05T16:53:03.671Z,3.25
2022-11-05T16:55:35.452Z,2.90
2022-11-05T16:58:05.792Z,3.38
2022-11-05T17:00:36.254Z,3.40
2022-11-05T17:03:06.505Z,2.80
2022-11-05T17:05:37.120Z,3.03
2022-11-05T17:08:07.741Z,2.90
2022-11-05T17:10:38.319Z,3.13
2022-11-05T17:13:08.557Z,2.67
2022-11-05T17:15:38.786Z,2.70
2022-11-05T17:18:11.668Z,3.47
2022-11-05T17:20:48.403Z,2.53
2022-11-05T17:23:20.766Z,3.10
2022-11-05T17:25:53.704Z,3.13
2022-11-05T17:28:24.473Z,2.88
2022-11-05T17:30:55.153Z,2.92
2022-11-05T17:33:25.898Z,2.58
2022-11-05T17:35:56.655Z,2.55
2022-11-05T17:38:32.886Z,2.95
2022-11-05T17:41:03.401Z,3.08
2022-11-05T17:43:33.817Z,2.78
2022-11-05T17:46:08.615Z,2.83
2022-11-05T17:48:40.352Z,2.78
2022-11-05T17:51:16.682Z,2.60
2022-11-05T17:53:48.983Z,2.85
2022-11-05T17:56:33.474Z,2.83
2022-11-05T17:59:05.626Z,2.92
2022-11-05T18:01:44.804Z,2.38
2022-11-05T18:04:15.374Z,2.63
2022-11-05T18:06:45.787Z,2.58
2022-11-05T18:09:16.394Z,2.80
2022-11-05T18:11:46.804Z,2.65
2022-11-05T18:14:22.836Z,2.22
2022-11-05T18:16:56.851Z,2.70
2022-11-05T18:19:27.040Z,3.03
2022-11-05T18:21:58.071Z,2.80
2022-11-05T18:24:28.400Z,3.60
2022-11-05T18:26:58.677Z,2.53
2022-11-05T18:29:29.240Z,3.10
2022-11-05T18:31:59.486Z,2.42
2022-11-05T18:34:29.714Z,2.50
2022-11-05T18:36:59.974Z,2.30
2022-11-05T18:39:30.237Z,2.58
2022-11-05T18:42:00.462Z,2.42
2022-11-05T18:44:32.710Z,2.50
2022-11-05T18:47:07.538Z,2.60
2022-11-05T18:49:38.399Z,2.60
2022-11-05T18:52:08.853Z,2.88
2022-11-05T18:54:39.230Z,2.35
2022-11-05T18:57:09.725Z,2.80
2022-11-05T18:59:40.251Z,2.30
2022-11-05T19:02:11.181Z,2.17
2022-11-05T19:05:00.256Z,2.60
2022-11-05T19:07:32.466Z,2.47
2022-11-05T19:10:02.695Z,2.45
2022-11-05T19:12:32.859Z,2.20
2022-11-05T19:15:03.435Z,2.30
2022-11-05T19:17:35.399Z,2.20
2022-11-05T19:20:06.936Z,2.63
2022-11-05T19:22:37.169Z,2.15
2022-11-05T19:25:08.420Z,2.20
2022-11-05T19:27:40.439Z,2.47
2022-11-05T19:30:11.219Z,2.38
2022-11-05T19:32:41.418Z,2.38
2022-11-05T19:35:11.789Z,2.40
2022-11-05T19:37:42.057Z,2.40
2022-11-05T19:40:13.913Z,2.35
2022-11-05T19:42:44.243Z,2.22
2022-11-05T19:45:42.877Z,2.22
2022-11-05T19:48:05.044Z,2.30
2022-11-05T19:50:35.652Z,2.40
2022-11-05T19:53:05.866Z,2.55
2022-11-05T19:55:36.250Z,2.50
2022-11-05T19:58:06.386Z,2.00
2022-11-05T20:00:37.020Z,2.05
2022-11-05T20:03:07.257Z,1.90
2022-11-05T20:05:38.419Z,2.25
2022-11-05T20:08:12.034Z,2.40
2022-11-05T20:10:42.837Z,2.00
2022-11-05T20:13:18.535Z,2.00
2022-11-05T20:15:50.180Z,2.22
2022-11-05T20:18:20.725Z,2.15
2022-11-05T20:20:51.445Z,1.88
2022-11-05T20:23:21.918Z,1.90
2022-11-05T20:25:52.398Z,1.95
2022-11-05T20:28:22.624Z,2.03
2022-11-05T20:30:52.863Z,2.05
2022-11-05T20:33:23.693Z,2.03
2022-11-05T20:35:53.899Z,2.25
2022-11-05T20:38:29.450Z,1.90
2022-11-05T20:41:00.470Z,2.17
2022-11-05T20:43:32.318Z,2.13
2022-11-05T20:46:02.593Z,2.00
2022-11-05T20:48:37.045Z,2.40
2022-11-05T20:51:10.041Z,1.98
2022-11-05T20:53:41.121Z,1.70
2022-11-05T20:56:17.988Z,1.85
2022-11-05T20:58:49.093Z,2.28
2022-11-05T21:01:20.537Z,2.03
2022-11-05T21:03:51.341Z,1.92
2022-11-05T21:06:21.636Z,1.70
2022-11-05T21:08:53.323Z,1.90
2022-11-05T21:11:23.797Z,1.80
2022-11-05T21:13:54.172Z,1.80
2022-11-05T21:16:24.519Z,1.88
2022-11-05T21:18:54.703Z,1.88
2022-11-05T21:21:24.973Z,1.55
2022-11-05T21:23:55.133Z,1.95
2022-11-05T21:26:25.429Z,2.00
2022-11-05T21:28:55.668Z,1.50
2022-11-05T21:31:25.888Z,1.90
2022-11-05T21:33:56.029Z,1.77
2022-11-05T21:36:26.429Z,1.95
2022-11-05T21:38:56.594Z,1.45
2022-11-05T21:41:26.925Z,1.40
2022-11-05T21:43:57.129Z,1.83
2022-11-05T21:46:27.540Z,1.60
2022-11-05T21:48:57.772Z,1.35
2022-11-05T21:51:45.995Z,1.65
2022-11-05T21:54:34.009Z,1.63
2022-11-05T21:57:22.772Z,1.90
2022-11-05T21:59:58.111Z,1.77
2022-11-05T22:02:30.351Z,1.30
2022-11-05T22:05:01.743Z,1.70
2022-11-05T22:07:35.615Z,1.60
2022-11-05T22:10:10.721Z,1.55
2022-11-05T22:12:45.835Z,1.58
2022-11-05T22:15:16.706Z,1.50
2022-11-05T22:17:47.369Z,1.52
2022-11-05T22:20:18.816Z,1.70
2022-11-05T22:22:49.906Z,1.70
2022-11-05T22:25:20.412Z,1.38
2022-11-05T22:27:50.777Z,1.83
2022-11-05T22:30:21.098Z,1.80
2022-11-05T22:32:51.352Z,1.40
2022-11-05T22:35:21.671Z,1.70
2022-11-05T22:37:51.823Z,1.50
2022-11-05T22:40:24.016Z,1.50
2022-11-05T22:42:54.582Z,1.50
2022-11-05T22:45:24.878Z,1.27
2022-11-05T22:47:55.213Z,1.42
2022-11-05T22:50:25.689Z,1.30
2022-11-05T22:52:56.159Z,1.52
2022-11-05T22:55:26.407Z,1.75
2022-11-05T22:57:56.685Z,1.70
2022-11-05T23:00:40.629Z,1.60
2022-11-05T23:03:10.840Z,1.60
2022-11-05T23:05:41.098Z,1.30
2022-11-05T23:08:30.777Z,1.10
2022-11-05T23:11:29.735Z,1.48
2022-11-05T23:13:59.870Z,1.60
2022-11-05T23:16:48.411Z,1.20
2022-11-05T23:19:36.782Z,1.27
2022-11-05T23:22:35.906Z,1.23
2022-11-05T23:25:07.421Z,1.30
2022-11-05T23:27:40.153Z,1.35
2022-11-05T23:30:14.679Z,1.48
2022-11-05T23:32:45.282Z,1.55
2022-11-05T23:35:15.967Z,1.17
2022-11-05T23:38:04.196Z,1.23
2022-11-05T23:40:57.474Z,1.75
2022-11-05T23:43:46.269Z,1.10
2022-11-05T23:46:34.533Z,1.40
2022-11-05T23:49:04.767Z,1.35
2022-11-05T23:51:35.078Z,1.30
2022-11-05T23:54:05.269Z,1.30
2022-11-05T23:56:35.533Z,1.42
2022-11-05T23:59:06.527Z,1.35
